createdAt,value
2023-02-28T00:01:28.341Z,83.05
2023-02-28T00:03:55.295Z,82.55
2023-02-28T00:06:22.183Z,83.53
2023-02-28T00:08:49.241Z,83.78
2023-02-28T00:11:17.425Z,83.94
2023-02-28T00:13:47.864Z,84.28
2023-02-28T00:16:20.393Z,83.73
2023-02-28T00:18:48.599Z,83.25
2023-02-28T00:21:16.776Z,83.04
2023-02-28T00:23:43.621Z,83.54
2023-02-28T00:26:10.347Z,83.48
2023-02-28T00:28:37.122Z,84.15
2023-02-28T00:31:04.176Z,83.91
2023-02-28T00:33:32.381Z,84.80
2023-02-28T00:36:05.793Z,84.03
2023-02-28T00:38:32.743Z,83.53
2023-02-28T00:41:05.596Z,82.23
2023-02-28T00:43:38.324Z,82.19
2023-02-28T00:46:05.784Z,82.82
2023-02-28T00:48:33.111Z,82.61
2023-02-28T00:50:59.859Z,82.40
2023-02-28T00:53:26.734Z,82.74
2023-02-28T00:55:53.509Z,82.31
2023-02-28T00:58:20.328Z,82.85
2023-02-28T01:00:50.428Z,82.35
2023-02-28T01:03:19.396Z,82.53
2023-02-28T01:05:46.759Z,82.85
2023-02-28T01:08:14.971Z,83.49
2023-02-28T01:10:42.296Z,83.12
2023-02-28T01:13:09.164Z,83.19
2023-02-28T01:15:36.024Z,84.16
2023-02-28T01:18:02.849Z,83.88
2023-02-28T01:20:29.626Z,84.42
2023-02-28T01:22:56.433Z,83.78
2023-02-28T01:25:23.226Z,83.71
2023-02-28T01:27:49.982Z,83.87
2023-02-28T01:30:17.089Z,84.55
2023-02-28T01:32:43.829Z,83.78
2023-02-28T01:35:10.608Z,83.47
2023-02-28T01:37:37.321Z,83.72
2023-02-28T01:40:05.001Z,83.78
2023-02-28T01:42:31.770Z,83.92
2023-02-28T01:45:27.257Z,83.38
2023-02-28T01:48:02.415Z,83.30
2023-02-28T01:50:34.144Z,83.02
2023-02-28T01:53:06.094Z,83.08
2023-02-28T01:55:33.926Z,83.03
2023-02-28T01:58:04.216Z,83.23
2023-02-28T02:00:32.290Z,83.02
2023-02-28T02:03:03.156Z,83.17
2023-02-28T02:05:35.616Z,82.25
2023-02-28T02:08:13.943Z,82.39
2023-02-28T02:10:55.181Z,82.57
2023-02-28T02:13:56.506Z,82.08
2023-02-28T02:17:01.214Z,82.81
2023-02-28T02:20:08.621Z,82.48
2023-02-28T02:23:23.351Z,82.16
2023-02-28T02:26:07.068Z,82.47
2023-02-28T02:28:58.370Z,82.41
2023-02-28T02:34:27.403Z,81.78
2023-02-28T02:37:39.473Z,81.28
2023-02-28T02:40:48.140Z,81.72
2023-02-28T02:43:23.954Z,81.24
2023-02-28T02:45:58.195Z,81.11
2023-02-28T02:48:32.255Z,80.85
2023-02-28T02:51:12.957Z,81.30
2023-02-28T02:53:50.342Z,81.63
2023-02-28T02:56:22.294Z,81.96
2023-02-28T02:58:52.147Z,81.39
2023-02-28T03:01:28.980Z,81.07
2023-02-28T03:04:04.378Z,80.28
2023-02-28T03:06:31.313Z,80.39
2023-02-28T03:08:58.314Z,80.84
2023-02-28T03:11:25.091Z,81.35
2023-02-28T03:14:33.485Z,80.48
2023-02-28T03:17:21.406Z,80.94
2023-02-28T03:20:11.646Z,80.62
2023-02-28T03:22:54.346Z,81.09
2023-02-28T03:25:39.224Z,80.41
2023-02-28T03:28:40.158Z,79.90
2023-02-28T03:31:42.786Z,79.76
2023-02-28T03:34:26.224Z,80.33
2023-02-28T03:36:58.991Z,80.00
2023-02-28T03:39:42.505Z,80.00
2023-02-28T03:42:29.169Z,79.87
2023-02-28T03:45:03.034Z,80.03
2023-02-28T03:47:50.283Z,80.78
2023-02-28T03:50:26.470Z,80.43
2023-02-28T03:53:05.888Z,79.96
2023-02-28T03:55:51.264Z,80.22
2023-02-28T03:58:42.318Z,80.17
2023-02-28T04:01:15.696Z,80.00
2023-02-28T04:03:42.498Z,80.27
2023-02-28T04:06:18.203Z,80.39
2023-02-28T04:08:45.171Z,80.56
2023-02-28T04:11:52.712Z,80.28
2023-02-28T04:14:19.995Z,79.76
2023-02-28T04:16:46.768Z,79.49
2023-02-28T04:19:15.309Z,79.39
2023-02-28T04:21:52.100Z,79.21
2023-02-28T04:24:24.448Z,78.52
2023-02-28T04:34:28.176Z,79.40
2023-02-28T04:37:11.975Z,78.65
2023-02-28T04:39:46.517Z,78.34
2023-02-28T04:42:14.360Z,78.68
2023-02-28T04:44:41.137Z,79.07
2023-02-28T04:47:08.040Z,78.75
2023-02-28T04:49:34.766Z,78.50
2023-02-28T04:52:01.559Z,78.75
2023-02-28T04:54:29.426Z,77.84
2023-02-28T04:56:56.227Z,78.59
2023-02-28T04:59:22.985Z,78.43
2023-02-28T05:01:50.344Z,77.45
2023-02-28T05:04:17.171Z,77.93
2023-02-28T05:06:44.203Z,78.39
2023-02-28T05:09:12.789Z,78.26
2023-02-28T05:11:40.803Z,77.91
2023-02-28T05:14:15.454Z,78.91
2023-02-28T05:16:42.280Z,77.88
2023-02-28T05:19:09.343Z,78.16
2023-02-28T05:21:42.474Z,78.21
2023-02-28T05:24:13.285Z,79.04
2023-02-28T05:26:43.457Z,79.94
2023-02-28T05:29:11.728Z,79.26
2023-02-28T05:31:39.273Z,78.98
2023-02-28T05:34:06.705Z,78.69
2023-02-28T05:36:34.261Z,79.08
2023-02-28T05:39:01.016Z,78.38
2023-02-28T05:41:28.321Z,78.81
2023-02-28T05:43:55.382Z,78.97
2023-02-28T05:46:22.229Z,78.24
2023-02-28T05:48:49.695Z,78.43
2023-02-28T05:51:17.415Z,78.36
2023-02-28T05:53:44.473Z,78.69
2023-02-28T05:56:11.186Z,79.27
2023-02-28T05:58:37.912Z,79.03
2023-02-28T06:01:33.154Z,78.22
2023-02-28T06:04:05.900Z,78.06
2023-02-28T06:06:36.910Z,79.00
2023-02-28T06:09:06.489Z,78.24
2023-02-28T06:11:33.914Z,79.43
2023-02-28T06:14:02.302Z,80.29
2023-02-28T06:16:30.406Z,78.98
2023-02-28T06:19:02.869Z,80.12
2023-02-28T06:21:31.052Z,80.20
2023-02-28T06:23:59.609Z,79.76
2023-02-28T06:26:26.821Z,78.82
2023-02-28T06:28:54.227Z,79.40
2023-02-28T06:31:21.713Z,78.25
2023-02-28T06:33:48.722Z,78.50
2023-02-28T06:36:17.379Z,78.02
2023-02-28T06:38:45.204Z,78.82
2023-02-28T06:41:12.285Z,79.63
2023-02-28T06:43:42.899Z,79.31
2023-02-28T06:46:14.647Z,80.64
2023-02-28T06:48:42.335Z,81.50
2023-02-28T06:51:36.860Z,81.23
2023-02-28T06:54:03.995Z,81.23
2023-02-28T06:56:30.934Z,80.86
2023-02-28T06:58:58.017Z,80.23
2023-02-28T07:01:25.438Z,81.30
2023-02-28T07:03:53.718Z,80.62
2023-02-28T07:06:23.730Z,80.28
2023-02-28T07:08:52.417Z,80.93
2023-02-28T07:11:19.898Z,81.02
2023-02-28T07:13:48.664Z,80.45
2023-02-28T07:16:15.589Z,80.96
2023-02-28T07:18:42.310Z,81.32
2023-02-28T07:21:11.021Z,81.45
2023-02-28T07:23:42.589Z,81.15
2023-02-28T07:26:15.852Z,80.67
2023-02-28T07:28:43.964Z,79.82
2023-02-28T07:31:11.921Z,79.49
2023-02-28T07:33:39.681Z,80.72
2023-02-28T07:36:19.938Z,80.40
2023-02-28T07:38:51.143Z,80.43
2023-02-28T07:41:21.948Z,80.13
2023-02-28T07:43:49.248Z,80.94
2023-02-28T07:46:18.102Z,80.77
2023-02-28T07:48:45.669Z,80.36
2023-02-28T07:51:12.522Z,80.88
2023-02-28T07:53:39.247Z,80.80
2023-02-28T07:56:06.821Z,79.68
2023-02-28T07:58:33.596Z,79.82
2023-02-28T08:01:10.709Z,79.53
2023-02-28T08:03:38.572Z,80.85
2023-02-28T08:06:07.160Z,81.48
2023-02-28T08:08:33.973Z,80.30
2023-02-28T08:11:03.462Z,80.21
2023-02-28T08:13:31.223Z,79.78
2023-02-28T08:15:58.323Z,79.96
2023-02-28T08:18:25.618Z,79.43
2023-02-28T08:20:52.648Z,79.89
2023-02-28T08:23:19.660Z,79.13
2023-02-28T08:25:53.500Z,79.54
2023-02-28T08:28:20.224Z,79.67
2023-02-28T08:30:46.956Z,79.04
2023-02-28T08:35:57.391Z,79.23
2023-02-28T08:38:24.855Z,80.19
2023-02-28T08:40:55.680Z,79.25
2023-02-28T08:43:22.441Z,79.61
2023-02-28T08:45:53.572Z,79.88
2023-02-28T08:48:20.364Z,79.28
2023-02-28T08:51:07.167Z,79.58
2023-02-28T08:53:35.023Z,79.18
2023-02-28T08:56:14.765Z,79.98
2023-02-28T08:58:41.715Z,80.21
2023-02-28T09:01:15.127Z,80.15
2023-02-28T09:03:43.472Z,79.32
2023-02-28T09:06:11.884Z,79.01
2023-02-28T09:08:39.492Z,78.22
2023-02-28T09:11:06.486Z,79.47
2023-02-28T09:13:33.447Z,79.54
2023-02-28T09:16:03.448Z,78.54
2023-02-28T09:18:30.582Z,78.52
2023-02-28T09:20:58.891Z,79.29
2023-02-28T09:23:26.200Z,78.58
2023-02-28T09:25:55.762Z,77.88
2023-02-28T09:28:23.083Z,78.09
2023-02-28T09:30:55.461Z,77.38
2023-02-28T09:33:22.997Z,77.34
2023-02-28T09:35:50.857Z,77.47
2023-02-28T09:38:18.713Z,78.14
2023-02-28T09:40:52.849Z,78.41
2023-02-28T09:43:24.474Z,78.10
2023-02-28T09:46:01.959Z,76.95
2023-02-28T09:48:41.260Z,76.58
2023-02-28T09:51:52.540Z,78.41
2023-02-28T09:54:23.744Z,77.75
2023-02-28T09:57:20.860Z,78.19
2023-02-28T10:00:19.117Z,78.03
2023-02-28T10:03:27.975Z,77.88
2023-02-28T10:06:17.813Z,76.79
2023-02-28T10:09:24.661Z,78.10
2023-02-28T10:12:03.228Z,78.99
2023-02-28T10:14:34.763Z,78.78
2023-02-28T10:17:11.350Z,78.11
2023-02-28T10:19:50.330Z,77.56
2023-02-28T10:22:35.409Z,77.10
2023-02-28T10:25:06.972Z,77.64
2023-02-28T10:27:35.376Z,77.88
2023-02-28T10:30:03.652Z,78.32
2023-02-28T10:32:34.886Z,77.44
2023-02-28T10:35:10.681Z,77.74
2023-02-28T10:37:42.529Z,77.73
2023-02-28T10:40:39.443Z,76.62
2023-02-28T10:43:19.896Z,77.24
2023-02-28T10:46:27.471Z,76.38
2023-02-28T10:49:07.781Z,77.03
2023-02-28T10:51:40.762Z,76.59
2023-02-28T10:54:17.804Z,77.21
2023-02-28T10:56:44.660Z,77.58
2023-02-28T10:59:32.111Z,78.01
2023-02-28T11:01:58.942Z,78.01
2023-02-28T11:04:33.692Z,78.23
2023-02-28T11:07:05.468Z,77.88
2023-02-28T11:09:37.746Z,77.12
2023-02-28T11:12:08.781Z,76.33
2023-02-28T11:14:49.935Z,75.99
2023-02-28T11:17:30.108Z,75.74
2023-02-28T11:20:04.493Z,75.27
2023-02-28T11:22:37.159Z,75.87
2023-02-28T11:25:11.231Z,74.99
2023-02-28T11:27:38.552Z,75.53
2023-02-28T11:30:24.682Z,75.58
2023-02-28T11:32:51.893Z,76.26
2023-02-28T11:35:27.604Z,74.36
2023-02-28T11:37:54.832Z,74.40
2023-02-28T11:40:47.487Z,74.66
2023-02-28T11:43:20.175Z,74.26
2023-02-28T11:45:58.670Z,74.84
2023-02-28T11:48:52.600Z,74.56
2023-02-28T11:51:25.588Z,74.46
2023-02-28T11:54:22.726Z,74.36
2023-02-28T11:56:58.421Z,75.06
2023-02-28T11:59:43.284Z,74.21
2023-02-28T12:02:22.344Z,74.11
2023-02-28T12:05:20.311Z,74.43
2023-02-28T12:07:56.076Z,72.80
2023-02-28T12:10:26.987Z,74.35
2023-02-28T12:13:38.813Z,73.89
2023-02-28T12:16:21.894Z,73.81
2023-02-28T12:19:19.157Z,73.64
2023-02-28T12:22:22.010Z,72.86
2023-02-28T12:25:20.284Z,73.56
2023-02-28T12:27:49.563Z,73.29
2023-02-28T12:30:26.332Z,72.66
2023-02-28T12:33:01.992Z,73.73
2023-02-28T12:35:38.483Z,73.89
2023-02-28T12:38:21.073Z,72.95
2023-02-28T12:41:14.132Z,71.56
2023-02-28T12:44:09.226Z,73.75
2023-02-28T12:46:45.779Z,72.96
2023-02-28T12:49:23.792Z,72.69
2023-02-28T12:51:51.811Z,73.28
2023-02-28T12:54:46.317Z,72.74
2023-02-28T12:57:49.775Z,71.43
2023-02-28T13:00:23.214Z,69.81
2023-02-28T13:03:48.800Z,70.38
2023-02-28T13:06:38.263Z,69.85
2023-02-28T13:09:17.908Z,69.89
2023-02-28T13:11:52.200Z,70.13
2023-02-28T13:14:37.450Z,68.90
2023-02-28T13:17:10.170Z,69.04
2023-02-28T13:19:39.055Z,69.24
2023-02-28T13:22:18.197Z,69.25
2023-02-28T13:24:53.203Z,68.52
2023-02-28T13:27:41.561Z,66.84
2023-02-28T13:31:00.558Z,67.24
2023-02-28T13:33:45.387Z,66.35
2023-02-28T13:36:15.456Z,67.35
2023-02-28T13:39:01.132Z,67.02
2023-02-28T13:41:34.606Z,66.13
2023-02-28T13:44:11.306Z,66.42
2023-02-28T13:46:57.927Z,67.44
2023-02-28T13:49:25.920Z,66.53
2023-02-28T13:52:22.174Z,68.18
2023-02-28T13:55:26.035Z,65.66
2023-02-28T13:58:40.276Z,65.48
2023-02-28T14:01:06.927Z,64.14
2023-02-28T14:04:10.435Z,64.60
2023-02-28T14:06:38.138Z,63.76
2023-02-28T14:09:24.404Z,62.93
2023-02-28T14:11:52.270Z,62.92
2023-02-28T14:14:37.427Z,63.75
2023-02-28T14:17:25.682Z,62.23
2023-02-28T14:19:53.958Z,62.94
2023-02-28T14:22:46.941Z,62.90
2023-02-28T14:25:35.714Z,63.98
2023-02-28T14:28:18.118Z,63.61
2023-02-28T14:31:14.014Z,62.84
2023-02-28T14:34:00.877Z,63.04
2023-02-28T14:36:33.969Z,63.89
2023-02-28T14:39:16.729Z,61.83
2023-02-28T14:41:45.391Z,61.99
2023-02-28T14:44:21.422Z,62.23
2023-02-28T14:46:55.293Z,61.43
2023-02-28T14:49:33.721Z,60.88
2023-02-28T14:52:11.008Z,61.19
2023-02-28T14:54:42.043Z,60.38
2023-02-28T14:57:33.840Z,61.11
2023-02-28T15:00:41.057Z,61.47
2023-02-28T15:03:33.465Z,60.59
2023-02-28T15:06:13.700Z,58.78
2023-02-28T15:08:40.447Z,58.94
2023-02-28T15:11:14.824Z,58.86
2023-02-28T15:13:47.265Z,57.32
2023-02-28T15:16:21.676Z,58.24
2023-02-28T15:18:56.237Z,57.96
2023-02-28T15:21:27.096Z,58.70
2023-02-28T15:23:59.421Z,58.12
2023-02-28T15:26:38.721Z,58.42
2023-02-28T15:29:17.874Z,56.83
2023-02-28T15:31:57.266Z,57.02
2023-02-28T15:34:44.967Z,57.40
2023-02-28T15:37:46.185Z,57.94
2023-02-28T15:40:28.840Z,57.97
2023-02-28T15:43:17.115Z,58.12
2023-02-28T15:45:54.467Z,59.26
2023-02-28T15:48:32.624Z,58.42
2023-02-28T15:51:21.645Z,57.69
2023-02-28T15:54:02.445Z,58.36
2023-02-28T15:56:47.466Z,58.19
2023-02-28T15:59:27.829Z,57.96
2023-02-28T16:02:22.104Z,58.37
2023-02-28T16:05:07.342Z,58.79
2023-02-28T16:07:36.037Z,59.63
2023-02-28T16:10:03.232Z,59.84
2023-02-28T16:12:36.707Z,60.34
2023-02-28T16:15:10.057Z,60.73
2023-02-28T16:17:39.948Z,60.62
2023-02-28T16:20:18.936Z,60.73
2023-02-28T16:22:46.686Z,59.87
2023-02-28T16:25:19.617Z,60.08
2023-02-28T16:27:50.380Z,60.17
2023-02-28T16:30:23.130Z,61.27
2023-02-28T16:32:51.899Z,61.61
2023-02-28T16:35:20.258Z,61.24
2023-02-28T16:37:47.197Z,61.31
2023-02-28T16:40:24.177Z,62.08
2023-02-28T16:42:54.239Z,62.11
2023-02-28T16:45:28.483Z,62.41
2023-02-28T16:47:56.230Z,62.53
2023-02-28T16:50:26.788Z,63.00
2023-02-28T16:52:53.676Z,62.85
2023-02-28T16:55:20.438Z,62.82
2023-02-28T16:57:56.173Z,63.55
2023-02-28T17:00:23.755Z,63.25
2023-02-28T17:02:50.578Z,63.37
2023-02-28T17:05:18.416Z,63.09
2023-02-28T17:07:45.779Z,63.09
2023-02-28T17:10:23.088Z,62.39
2023-02-28T17:12:50.479Z,62.93
2023-02-28T17:15:20.051Z,63.53
2023-02-28T17:17:48.653Z,63.38
2023-02-28T17:20:17.017Z,64.01
2023-02-28T17:22:43.823Z,64.43
2023-02-28T17:25:11.844Z,64.36
2023-02-28T17:27:39.391Z,64.27
2023-02-28T17:30:28.544Z,64.93
2023-02-28T17:32:58.172Z,65.07
2023-02-28T17:35:25.357Z,65.24
2023-02-28T17:37:52.196Z,66.58
2023-02-28T17:40:23.875Z,66.33
2023-02-28T17:42:53.331Z,66.52
2023-02-28T17:45:21.134Z,66.06
2023-02-28T17:47:51.449Z,66.53
2023-02-28T17:50:23.014Z,66.94
2023-02-28T17:52:55.050Z,67.44
2023-02-28T17:55:25.940Z,67.40
2023-02-28T17:57:58.747Z,67.47
2023-02-28T18:00:26.877Z,67.65
2023-02-28T18:03:01.710Z,68.28
2023-02-28T18:05:38.203Z,68.59
2023-02-28T18:08:27.132Z,68.07
2023-02-28T18:11:26.990Z,69.49
2023-02-28T18:13:57.084Z,69.94
2023-02-28T18:16:27.643Z,69.63
2023-02-28T18:18:57.145Z,70.22
2023-02-28T18:21:38.871Z,69.69
2023-02-28T18:24:07.694Z,71.30
2023-02-28T18:26:37.612Z,71.29
2023-02-28T18:29:08.618Z,72.05
2023-02-28T18:31:37.748Z,72.22
2023-02-28T18:35:00.947Z,72.50
2023-02-28T18:37:00.325Z,72.76
2023-02-28T18:39:27.077Z,73.06
2023-02-28T18:41:53.800Z,73.10
2023-02-28T18:44:21.522Z,73.12
2023-02-28T18:46:50.241Z,74.13
2023-02-28T18:49:18.287Z,73.38
2023-02-28T18:51:46.732Z,75.33
2023-02-28T18:54:15.170Z,75.32
2023-02-28T18:56:42.910Z,76.17
2023-02-28T18:59:11.243Z,75.72
2023-02-28T19:01:38.634Z,75.91
2023-02-28T19:04:05.765Z,76.34
2023-02-28T19:06:34.185Z,75.80
2023-02-28T19:09:04.120Z,75.82
2023-02-28T19:11:32.176Z,75.86
2023-02-28T19:13:59.282Z,75.73
2023-02-28T19:16:27.869Z,75.52
2023-02-28T19:18:55.716Z,75.07
2023-02-28T19:21:24.952Z,76.69
2023-02-28T19:23:52.433Z,77.00
2023-02-28T19:26:23.769Z,76.69
2023-02-28T19:28:50.793Z,78.59
2023-02-28T19:31:23.993Z,79.27
2023-02-28T19:33:53.038Z,78.86
2023-02-28T19:36:21.435Z,78.55
2023-02-28T19:38:48.899Z,78.41
2023-02-28T19:41:17.274Z,79.60
2023-02-28T19:43:44.290Z,80.68
2023-02-28T19:46:12.208Z,79.93
2023-02-28T19:48:39.404Z,81.09
2023-02-28T19:51:10.416Z,81.67
2023-02-28T19:53:39.766Z,80.41
2023-02-28T19:56:08.590Z,80.78
2023-02-28T19:58:36.156Z,80.88
2023-02-28T20:01:18.624Z,81.43
2023-02-28T20:03:50.802Z,82.09
2023-02-28T20:06:18.201Z,82.09
2023-02-28T20:08:45.156Z,82.25
2023-02-28T20:11:15.819Z,82.84
2023-02-28T20:13:43.370Z,82.08
2023-02-28T20:16:12.175Z,83.02
2023-02-28T20:18:40.748Z,84.40
2023-02-28T20:21:12.139Z,84.53
2023-02-28T20:23:40.870Z,84.53
2023-02-28T20:26:08.088Z,82.84
2023-02-28T20:28:35.134Z,83.86
2023-02-28T20:31:02.123Z,83.99
2023-02-28T20:33:29.386Z,83.82
2023-02-28T20:36:01.723Z,84.69
2023-02-28T20:38:28.963Z,85.16
2023-02-28T20:40:58.613Z,85.54
2023-02-28T20:43:25.821Z,84.91
2023-02-28T20:45:54.453Z,84.62
2023-02-28T20:48:22.287Z,85.10
2023-02-28T20:50:51.321Z,85.60
2023-02-28T20:53:18.554Z,84.05
2023-02-28T20:56:12.937Z,85.45
2023-02-28T20:58:40.488Z,85.93
2023-02-28T21:01:17.675Z,86.30
2023-02-28T21:03:51.282Z,86.49
2023-02-28T21:06:21.333Z,87.18
2023-02-28T21:08:49.132Z,86.24
2023-02-28T21:11:19.985Z,86.98
2023-02-28T21:13:48.071Z,87.35
2023-02-28T21:16:19.363Z,86.96
2023-02-28T21:18:46.403Z,86.91
2023-02-28T21:21:17.503Z,86.34
2023-02-28T21:23:48.419Z,86.91
2023-02-28T21:26:19.856Z,87.27
2023-02-28T21:28:58.706Z,87.23
2023-02-28T21:31:28.082Z,86.67
2023-02-28T21:33:57.423Z,86.90
2023-02-28T21:36:29.867Z,86.46
2023-02-28T21:38:58.605Z,85.85
2023-02-28T21:41:26.120Z,85.44
2023-02-28T21:43:53.588Z,85.53
2023-02-28T21:46:26.970Z,85.58
2023-02-28T21:48:55.295Z,85.25
2023-02-28T21:51:33.371Z,84.63
2023-02-28T21:54:01.091Z,84.42
2023-02-28T21:56:31.659Z,85.88
2023-02-28T21:59:02.138Z,86.78
2023-02-28T22:01:36.585Z,86.61
2023-02-28T22:04:07.988Z,85.82
2023-02-28T22:06:39.439Z,86.50
2023-02-28T22:09:09.702Z,86.70
2023-02-28T22:11:39.004Z,85.46
2023-02-28T22:14:07.808Z,85.26
2023-02-28T22:16:49.678Z,85.40
2023-02-28T22:19:18.804Z,86.04
2023-02-28T22:21:46.875Z,86.90
2023-02-28T22:24:14.866Z,86.55
2023-02-28T22:26:41.806Z,86.55
2023-02-28T22:29:09.302Z,86.22
2023-02-28T22:31:36.455Z,88.01
2023-02-28T22:34:08.232Z,87.46
2023-02-28T22:36:35.415Z,87.63
2023-02-28T22:39:03.086Z,88.20
2023-02-28T22:41:30.660Z,89.05
2023-02-28T22:44:01.032Z,88.15
2023-02-28T22:46:30.289Z,88.72
2023-02-28T22:49:02.983Z,88.50
2023-02-28T22:51:30.895Z,89.04
2023-02-28T22:53:58.717Z,90.48
2023-02-28T22:56:29.222Z,90.92
2023-02-28T22:58:58.985Z,91.25
2023-02-28T23:01:29.068Z,91.27
2023-02-28T23:03:56.299Z,91.05
2023-02-28T23:06:32.309Z,91.26
2023-02-28T23:09:03.871Z,91.33
2023-02-28T23:11:35.398Z,91.74
2023-02-28T23:14:02.686Z,91.79
2023-02-28T23:16:50.185Z,91.07
2023-02-28T23:19:22.303Z,91.08
2023-02-28T23:21:49.378Z,91.11
2023-02-28T23:24:19.801Z,90.74
2023-02-28T23:26:50.100Z,90.17
2023-02-28T23:29:19.748Z,89.99
2023-02-28T23:31:47.106Z,90.42
2023-02-28T23:34:17.357Z,90.42
2023-02-28T23:36:46.391Z,90.21
2023-02-28T23:39:16.729Z,89.45
2023-02-28T23:41:43.882Z,88.76
2023-02-28T23:44:13.769Z,89.05
2023-02-28T23:46:40.650Z,89.17
2023-02-28T23:49:07.424Z,90.29
2023-02-28T23:51:34.211Z,89.83
2023-02-28T23:54:03.295Z,90.45
2023-02-28T23:56:31.014Z,91.08
2023-02-28T23:58:58.764Z,90.98
